Time;durP1;ratioP1;P1;durP2;ratioP2;P2;SDS_P1;SDS_P2;PMS_P1;PMS_P2;Temp;Humidity;BMP_temperature;BMP_pressure;BME280_temperature;BME280_humidity;BME280_pressure;Samples;Min_cycle;Max_cycle;Signal;HPM_P1;HPM_P2
2021/10/09 00:00:44;;;;;;;31.63;24.65;;;11.40;99.90;;;;;;6187798;23;20027;-80
2021/10/09 00:03:09;;;;;;;32.65;25.42;;;11.40;99.90;;;;;;6187297;23;20434;-80
2021/10/09 00:05:35;;;;;;;38.92;25.42;;;11.50;99.90;;;;;;6213176;23;20020;-80
2021/10/09 00:08:01;;;;;;;34.80;25.35;;;11.50;99.90;;;;;;6188662;23;20047;-80
2021/10/09 00:10:29;;;;;;;33.08;26.27;;;11.40;99.90;;;;;;6187177;23;20019;-77
2021/10/09 00:12:55;;;;;;;36.35;25.25;;;11.40;99.90;;;;;;6187760;23;20017;-77
2021/10/09 00:15:22;;;;;;;33.33;25.10;;;11.30;99.90;;;;;;6214770;23;20170;-77
2021/10/09 00:17:47;;;;;;;36.28;25.58;;;11.40;99.90;;;;;;6188156;23;20059;-77
2021/10/09 00:20:13;;;;;;;33.70;25.83;;;11.30;99.90;;;;;;6187648;23;20040;-77
2021/10/09 00:22:39;;;;;;;32.15;25.15;;;11.30;99.90;;;;;;6187834;23;20122;-77
2021/10/09 00:25:08;;;;;;;33.22;25.60;;;11.30;99.90;;;;;;6186328;23;20439;-77
2021/10/09 00:27:35;;;;;;;34.13;26.88;;;11.30;99.90;;;;;;6187694;23;20017;-77
2021/10/09 00:30:05;;;;;;;36.38;24.92;;;11.80;99.90;;;;;;6163203;23;20111;-77
2021/10/09 00:32:31;;;;;;;35.78;25.48;;;11.30;99.90;;;;;;6214297;23;20024;-77
2021/10/09 00:34:57;;;;;;;34.92;26.70;;;11.30;99.90;;;;;;6187487;23;20021;-77
2021/10/09 00:37:23;;;;;;;38.33;26.33;;;11.30;99.90;;;;;;6162999;23;20040;-77
2021/10/09 00:39:49;;;;;;;38.33;26.88;;;11.30;99.90;;;;;;6162998;23;20020;-77
2021/10/09 00:42:14;;;;;;;33.03;25.77;;;11.30;99.90;;;;;;6188074;23;20012;-80
2021/10/09 00:44:40;;;;;;;34.72;26.55;;;11.30;99.90;;;;;;6189469;23;20019;-81
2021/10/09 00:47:06;;;;;;;35.75;25.77;;;12.10;99.90;;;;;;6190074;23;20055;-81
2021/10/09 00:49:32;;;;;;;33.88;26.50;;;11.20;99.90;;;;;;6189429;23;20494;-81
2021/10/09 00:52:05;;;;;;;35.40;26.17;;;11.30;99.90;;;;;;6188980;23;20024;-81
2021/10/09 00:54:35;;;;;;;36.17;26.05;;;11.20;99.90;;;;;;6189212;23;20081;-80
2021/10/09 00:57:02;;;;;;;34.45;26.70;;;11.20;99.90;;;;;;6216482;23;20013;-80
2021/10/09 00:59:28;;;;;;;38.00;26.45;;;11.20;99.90;;;;;;6188487;23;20347;-81
2021/10/09 01:01:58;;;;;;;39.83;27.23;;;11.70;99.90;;;;;;6214961;23;20008;-81
2021/10/09 01:04:27;;;;;;;38.15;26.70;;;11.20;99.90;;;;;;6189415;23;20019;-80
2021/10/09 01:06:52;;;;;;;34.05;26.15;;;11.10;99.90;;;;;;6164181;23;20035;-80
2021/10/09 01:09:18;;;;;;;33.15;25.27;;;11.30;99.90;;;;;;6164355;23;20072;-80
2021/10/09 01:11:44;;;;;;;37.60;27.40;;;11.20;99.90;;;;;;6188922;23;20020;-80
2021/10/09 01:14:10;;;;;;;36.55;25.45;;;11.10;99.90;;;;;;6188503;23;20351;-80
2021/10/09 01:16:36;;;;;;;34.55;26.48;;;11.10;99.90;;;;;;6188969;23;20017;-80
2021/10/09 01:21:59;;;;;;;34.60;25.23;;;11.10;99.90;;;;;;6189000;23;20443;-80
2021/10/09 01:24:25;;;;;;;35.75;26.00;;;11.30;99.90;;;;;;6215315;23;20020;-80
2021/10/09 01:26:51;;;;;;;37.05;26.02;;;11.10;99.90;;;;;;6189263;23;20431;-81
2021/10/09 01:29:17;;;;;;;37.80;26.77;;;11.00;99.90;;;;;;6164638;23;20079;-81
2021/10/09 01:31:42;;;;;;;37.28;27.13;;;11.10;99.90;;;;;;6189263;23;20013;-81
2021/10/09 01:34:08;;;;;;;40.40;28.02;;;11.00;99.90;;;;;;6163952;23;20024;-80
2021/10/09 01:36:37;;;;;;;38.03;27.52;;;11.00;99.90;;;;;;6189565;23;20336;-81
2021/10/09 01:39:05;;;;;;;37.90;27.17;;;11.00;99.90;;;;;;6188570;23;20020;-81
2021/10/09 01:41:35;;;;;;;38.78;26.67;;;11.00;99.90;;;;;;6215650;23;20080;-81
2021/10/09 01:44:01;;;;;;;36.33;26.88;;;11.00;99.90;;;;;;6188887;23;20067;-81
2021/10/09 01:46:26;;;;;;;37.05;27.05;;;10.90;99.90;;;;;;6189075;23;20332;-77
2021/10/09 01:48:52;;;;;;;37.72;27.00;;;11.00;99.90;;;;;;6215631;23;20443;-78
2021/10/09 01:51:18;;;;;;;43.35;27.50;;;11.00;99.90;;;;;;6163935;23;20016;-78
2021/10/09 01:53:46;;;;;;;37.88;27.48;;;11.00;99.90;;;;;;6188279;23;20346;-78
2021/10/09 01:56:12;;;;;;;39.22;27.35;;;10.90;99.90;;;;;;6188115;23;20027;-78
2021/10/09 01:58:37;;;;;;;37.88;28.20;;;10.90;99.90;;;;;;6214353;23;20013;-77
2021/10/09 02:01:04;;;;;;;37.97;27.88;;;10.90;99.90;;;;;;6214226;23;20465;-77
2021/10/09 02:03:30;;;;;;;38.17;29.00;;;10.90;99.90;;;;;;6188677;23;20019;-77
2021/10/09 02:05:55;;;;;;;43.08;28.13;;;10.90;99.90;;;;;;6214212;23;20016;-77
2021/10/09 02:08:21;;;;;;;38.47;28.67;;;10.90;99.90;;;;;;6188469;23;20024;-77
2021/10/09 02:10:59;;;;;;;39.45;28.35;;;10.90;99.90;;;;;;6188435;23;20020;-80
2021/10/09 02:14:04;;;;;;;41.92;29.48;;;10.90;99.90;;;;;;6215741;23;20021;-77
2021/10/09 02:24:09;;;;;;;40.28;28.05;;;10.90;99.90;;;;;;6188483;23;20163;-77
2021/10/09 02:27:19;;;;;;;43.45;29.92;;;11.60;99.90;;;;;;6188344;23;20013;-80
2021/10/09 02:29:44;;;;;;;42.17;30.60;;;10.80;99.90;;;;;;6215459;23;20339;-81
2021/10/09 02:32:10;;;;;;;41.17;29.95;;;10.80;99.90;;;;;;6188422;23;20414;-80
2021/10/09 02:34:36;;;;;;;46.63;31.10;;;10.80;99.90;;;;;;6188839;23;20020;-81
2021/10/09 02:37:01;;;;;;;44.40;30.55;;;10.70;99.90;;;;;;6215758;23;20040;-80
2021/10/09 02:39:27;;;;;;;42.28;30.25;;;10.80;99.90;;;;;;6187483;23;20019;-80
2021/10/09 02:41:53;;;;;;;43.70;30.83;;;10.80;99.90;;;;;;6187264;23;20009;-80
2021/10/09 02:44:19;;;;;;;49.05;31.77;;;10.80;99.90;;;;;;6188568;23;20343;-80
2021/10/09 02:46:45;;;;;;;45.30;32.80;;;10.90;99.90;;;;;;6188303;23;20036;-81
2021/10/09 02:49:11;;;;;;;50.35;32.08;;;10.80;99.90;;;;;;6188411;23;20012;-80
2021/10/09 02:51:36;;;;;;;52.80;34.38;;;10.90;99.90;;;;;;6215592;23;20322;-80
2021/10/09 02:54:02;;;;;;;53.03;34.83;;;10.80;99.90;;;;;;6163874;23;20100;-77
2021/10/09 02:56:28;;;;;;;59.72;37.08;;;10.80;99.90;;;;;;6187964;23;20012;-77
2021/10/09 02:58:53;;;;;;;59.35;35.97;;;10.80;99.90;;;;;;6188250;23;20020;-77
2021/10/09 03:01:19;;;;;;;72.88;37.63;;;10.80;99.90;;;;;;6188786;23;20016;-77
2021/10/09 03:03:45;;;;;;;70.22;38.10;;;10.80;99.90;;;;;;6188076;23;20012;-78
2021/10/09 03:06:13;;;;;;;84.72;37.88;;;10.70;99.90;;;;;;6187993;23;20013;-77
2021/10/09 03:08:39;;;;;;;105.72;38.35;;;10.70;99.90;;;;;;6188583;23;20071;-77
2021/10/09 03:11:05;;;;;;;113.03;37.40;;;10.70;99.90;;;;;;6182927;23;20443;-77
2021/10/09 03:13:30;;;;;;;100.88;35.05;;;10.60;99.90;;;;;;6133406;23;20017;-77
2021/10/09 03:15:56;;;;;;;89.18;33.60;;;10.60;99.90;;;;;;6183205;23;20013;-77
2021/10/09 03:18:22;;;;;;;91.40;33.80;;;10.50;99.90;;;;;;6158623;23;20044;-77
2021/10/09 03:20:48;;;;;;;85.10;34.22;;;10.60;99.90;;;;;;6183050;23;20017;-77
2021/10/09 03:23:14;;;;;;;121.47;35.47;;;10.60;99.90;;;;;;6181945;23;20020;-77
2021/10/09 03:25:40;;;;;;;152.23;34.80;;;11.20;99.90;;;;;;6183261;23;20051;-77
2021/10/09 03:28:05;;;;;;;112.18;33.72;;;10.60;99.90;;;;;;6185156;23;20016;-77
2021/10/09 03:30:31;;;;;;;93.22;32.88;;;10.50;99.90;;;;;;6183212;23;20079;-77
2021/10/09 03:33:01;;;;;;;94.38;33.90;;;10.50;99.90;;;;;;6183335;23;20013;-77
2021/10/09 03:35:26;;;;;;;61.38;31.75;;;10.50;99.90;;;;;;6183057;23;20451;-77
2021/10/09 03:37:52;;;;;;;93.03;33.42;;;10.50;99.90;;;;;;6158351;23;20028;-77
2021/10/09 03:40:21;;;;;;;72.57;32.55;;;10.50;99.90;;;;;;6183609;23;20048;-77
2021/10/09 03:45:31;;;;;;;80.05;32.97;;;10.50;99.90;;;;;;6185056;23;20083;-80
2021/10/09 03:53:04;;;;;;;56.13;27.73;;;10.50;99.90;;;;;;6183075;23;20324;-77
2021/10/09 03:55:30;;;;;;;77.78;27.23;;;10.40;99.90;;;;;;6158518;23;20100;-78
2021/10/09 03:57:56;;;;;;;47.03;26.33;;;10.50;99.90;;;;;;6182853;23;20046;-77
2021/10/09 04:00:22;;;;;;;43.97;25.80;;;10.30;99.90;;;;;;6182937;23;20028;-81
2021/10/09 04:02:48;;;;;;;50.13;25.70;;;10.50;99.90;;;;;;6133747;23;20017;-80
2021/10/09 04:05:14;;;;;;;55.72;25.05;;;10.40;99.90;;;;;;6158231;23;20316;-80
2021/10/09 04:07:40;;;;;;;60.42;26.27;;;10.30;99.90;;;;;;6158525;23;20075;-77
2021/10/09 04:10:07;;;;;;;56.78;25.55;;;10.30;99.90;;;;;;6184926;23;20355;-77
2021/10/09 04:12:33;;;;;;;94.38;26.15;;;10.30;99.90;;;;;;6187517;23;20020;-81
2021/10/09 04:14:59;;;;;;;58.92;26.45;;;11.20;99.90;;;;;;6215074;23;20016;-81
2021/10/09 04:17:25;;;;;;;41.65;25.83;;;10.20;99.90;;;;;;6214487;23;20019;-81
2021/10/09 04:19:51;;;;;;;72.40;27.35;;;10.30;99.90;;;;;;6140638;23;20021;-81
2021/10/09 04:22:21;;;;;;;84.18;28.38;;;10.30;99.90;;;;;;6189707;23;20017;-81
2021/10/09 04:24:46;;;;;;;64.43;27.33;;;10.30;99.90;;;;;;6189907;23;20016;-82
2021/10/09 04:27:12;;;;;;;67.20;27.25;;;10.20;99.90;;;;;;6215783;23;20386;-81
2021/10/09 04:29:38;;;;;;;59.90;27.73;;;10.20;99.90;;;;;;6189851;23;20017;-81
2021/10/09 04:32:04;;;;;;;92.38;28.58;;;10.20;99.90;;;;;;6215299;23;20016;-81
2021/10/09 04:34:30;;;;;;;63.28;27.80;;;10.20;99.90;;;;;;6216290;23;20459;-77
2021/10/09 04:36:55;;;;;;;60.10;27.80;;;10.30;99.90;;;;;;6189930;23;20013;-77
2021/10/09 04:39:25;;;;;;;60.95;30.65;;;10.30;99.90;;;;;;6189253;23;20016;-77
2021/10/09 04:41:51;;;;;;;92.07;30.65;;;10.30;99.90;;;;;;6216359;23;20013;-77
2021/10/09 04:44:17;;;;;;;64.32;31.10;;;10.20;99.90;;;;;;6189076;23;20012;-77
2021/10/09 04:46:43;;;;;;;62.10;31.27;;;10.20;99.90;;;;;;6189686;23;20008;-77
2021/10/09 04:49:09;;;;;;;55.83;32.50;;;10.20;99.90;;;;;;6189733;23;20009;-77
2021/10/09 04:51:36;;;;;;;51.00;31.65;;;10.20;99.90;;;;;;6189624;23;20569;-77
2021/10/09 04:54:02;;;;;;;54.30;30.23;;;10.20;99.90;;;;;;6189359;23;20156;-77
2021/10/09 04:56:28;;;;;;;52.13;30.92;;;10.30;99.90;;;;;;6189302;23;20016;-77
2021/10/09 04:58:53;;;;;;;57.58;32.78;;;10.40;99.90;;;;;;6214474;23;20011;-80
2021/10/09 05:01:19;;;;;;;58.17;34.25;;;10.30;99.90;;;;;;6189740;23;20451;-80
2021/10/09 05:03:45;;;;;;;52.47;32.53;;;10.30;99.90;;;;;;6164504;23;20020;-80
2021/10/09 05:06:10;;;;;;;52.92;33.97;;;11.10;99.90;;;;;;6216489;23;20013;-80
2021/10/09 05:08:36;;;;;;;66.32;34.75;;;10.40;99.90;;;;;;6189228;23;20019;-80
2021/10/09 05:11:02;;;;;;;61.55;35.55;;;10.50;99.90;;;;;;6189389;23;20544;-81
2021/10/09 05:13:28;;;;;;;68.13;38.03;;;10.30;99.90;;;;;;6189183;23;20021;-80
2021/10/09 05:15:54;;;;;;;73.63;38.67;;;10.30;99.90;;;;;;6216196;23;20759;-80
2021/10/09 05:18:20;;;;;;;60.47;36.85;;;10.30;99.90;;;;;;6188744;23;20009;-81
2021/10/09 05:20:45;;;;;;;69.38;39.22;;;10.30;99.90;;;;;;6189069;23;20019;-80
2021/10/09 05:23:11;;;;;;;65.85;38.15;;;10.30;99.90;;;;;;6214436;23;20016;-81
2021/10/09 05:25:38;;;;;;;66.03;38.83;;;10.40;99.90;;;;;;6189321;23;20013;-80
2021/10/09 05:28:10;;;;;;;69.95;38.70;;;10.30;99.90;;;;;;6215632;23;20017;-80
2021/10/09 05:30:46;;;;;;;69.32;40.25;;;10.20;99.90;;;;;;6188912;23;20365;-80
2021/10/09 05:35:55;;;;;;;65.32;37.63;;;10.30;99.90;;;;;;6189094;23;19922;-81
2021/10/09 05:38:21;;;;;;;62.00;37.50;;;10.30;99.90;;;;;;6189235;23;20095;-80
2021/10/09 05:40:47;;;;;;;73.10;41.28;;;10.30;99.90;;;;;;6164319;23;20097;-80
2021/10/09 05:43:15;;;;;;;72.07;41.00;;;10.30;99.90;;;;;;6214339;23;20055;-80
2021/10/09 05:45:41;;;;;;;71.38;42.65;;;10.40;99.90;;;;;;6164193;23;20032;-81
2021/10/09 05:48:07;;;;;;;73.03;41.33;;;10.30;99.90;;;;;;6213616;23;20017;-77
2021/10/09 05:51:17;;;;;;;80.70;43.70;;;10.30;99.90;;;;;;6188950;23;20055;-77
2021/10/09 05:57:11;;;;;;;76.07;41.63;;;10.40;99.90;;;;;;6188865;23;20059;-81
2021/10/09 07:00:54;;;;;;;86.90;47.50;;;10.30;99.90;;;;;;6188325;23;20016;-81
2021/10/09 07:03:23;;;;;;;91.15;46.35;;;11.10;99.90;;;;;;6188694;23;20063;-80
2021/10/09 07:05:50;;;;;;;90.88;47.25;;;10.30;99.90;;;;;;6188051;23;20023;-80
2021/10/09 07:08:16;;;;;;;93.20;49.70;;;10.30;99.90;;;;;;6215046;23;20063;-77
2021/10/09 07:10:46;;;;;;;87.13;45.80;;;10.30;99.90;;;;;;6182855;23;20024;-77
2021/10/09 07:13:14;;;;;;;92.35;46.83;;;10.40;99.90;;;;;;6157963;23;20025;-81
2021/10/09 07:15:40;;;;;;;85.45;46.10;;;10.50;99.90;;;;;;6158259;23;20013;-80
2021/10/09 07:18:10;;;;;;;88.78;46.17;;;10.80;99.90;;;;;;6184942;23;20013;-80
2021/10/09 07:20:36;;;;;;;94.47;45.47;;;10.90;99.90;;;;;;6183114;23;20044;-80
2021/10/09 07:23:03;;;;;;;80.05;44.88;;;10.40;99.90;;;;;;6158560;23;20024;-80
2021/10/09 07:25:29;;;;;;;88.35;47.72;;;10.40;99.90;;;;;;6158573;23;20009;-81
2021/10/09 07:27:55;;;;;;;90.88;47.10;;;10.40;99.90;;;;;;6133910;23;20092;-81
2021/10/09 07:30:24;;;;;;;91.05;45.85;;;10.50;99.90;;;;;;6182783;23;20016;-80
2021/10/09 07:32:49;;;;;;;94.53;48.20;;;10.50;99.90;;;;;;6158509;23;20017;-80
2021/10/09 07:35:15;;;;;;;86.07;46.60;;;10.80;99.90;;;;;;6183096;23;20395;-80
2021/10/09 07:37:41;;;;;;;85.32;46.97;;;10.50;99.90;;;;;;6183420;23;20057;-81
2021/10/09 07:40:07;;;;;;;85.32;46.95;;;10.70;99.90;;;;;;6184625;23;20021;-77
2021/10/09 07:42:33;;;;;;;85.85;47.13;;;10.50;99.90;;;;;;6158257;23;20013;-77
2021/10/09 07:44:59;;;;;;;80.75;44.75;;;10.50;99.90;;;;;;6185079;23;20024;-77
2021/10/09 07:47:25;;;;;;;90.85;48.35;;;10.50;99.90;;;;;;6182865;23;20076;-81
2021/10/09 07:49:50;;;;;;;81.07;46.50;;;10.50;99.90;;;;;;6185120;23;20017;-81
2021/10/09 07:52:16;;;;;;;75.82;44.25;;;10.50;99.90;;;;;;6160155;23;20084;-81
2021/10/09 07:54:44;;;;;;;84.50;46.33;;;10.50;99.90;;;;;;6186757;23;20048;-77
2021/10/09 07:57:10;;;;;;;82.20;45.33;;;10.50;99.90;;;;;;6185097;23;20351;-77
2021/10/09 07:59:36;;;;;;;87.28;46.40;;;10.60;99.90;;;;;;6185418;23;20020;-77
2021/10/09 08:02:04;;;;;;;81.95;45.58;;;10.50;99.90;;;;;;6187154;23;20013;-77
2021/10/09 08:04:30;;;;;;;82.75;44.97;;;10.50;99.90;;;;;;6186346;23;20049;-77
2021/10/09 08:06:56;;;;;;;84.50;44.17;;;10.50;99.90;;;;;;6187051;23;20447;-77
2021/10/09 08:09:25;;;;;;;83.10;44.63;;;10.50;99.90;;;;;;6185049;23;20048;-77
2021/10/09 08:11:50;;;;;;;79.97;43.38;;;10.50;99.90;;;;;;6184908;23;20043;-77
2021/10/09 08:14:16;;;;;;;75.25;46.08;;;10.50;99.90;;;;;;6186864;23;20041;-77
2021/10/09 08:16:42;;;;;;;82.13;45.80;;;10.50;99.90;;;;;;6185425;23;20316;-77
2021/10/09 08:19:08;;;;;;;71.63;42.25;;;10.60;99.90;;;;;;6184064;23;20013;-77
2021/10/09 08:21:39;;;;;;;79.78;45.38;;;10.60;99.90;;;;;;6160179;23;20079;-77
2021/10/09 08:24:53;;;;;;;84.85;43.67;;;10.60;99.90;;;;;;6185157;23;20009;-77
2021/10/09 08:40:18;;;;;;;87.15;46.03;;;10.70;99.90;;;;;;6186442;23;20025;-77
2021/10/09 08:42:44;;;;;;;87.10;46.88;;;10.70;99.90;;;;;;6159685;23;20023;-77
2021/10/09 08:45:11;;;;;;;86.85;47.22;;;10.80;99.90;;;;;;6185033;23;20021;-77
2021/10/09 08:47:38;;;;;;;89.07;47.25;;;10.80;99.90;;;;;;6160167;23;20380;-77
2021/10/09 08:50:09;;;;;;;87.57;46.28;;;10.80;99.90;;;;;;6184514;23;20466;-77
2021/10/09 08:52:36;;;;;;;89.47;46.80;;;10.80;99.90;;;;;;6183900;23;20024;-77
2021/10/09 08:55:26;;;;;;;86.53;47.65;;;10.90;99.90;;;;;;6160116;23;20444;-77
2021/10/09 08:58:01;;;;;;;94.80;49.42;;;10.90;99.90;;;;;;6187033;23;20092;-81
2021/10/09 09:04:06;;;;;;;83.25;46.65;;;11.00;99.90;;;;;;6184322;23;20024;-81
2021/10/09 09:40:06;;;;;;;67.15;40.28;;;11.40;99.90;;;;;;6184478;23;20076;-82
2021/10/09 09:42:41;;;;;;;72.72;42.20;;;11.40;99.90;;;;;;6186350;23;20317;-82
2021/10/09 09:45:10;;;;;;;75.68;42.15;;;11.40;99.90;;;;;;6161253;23;20048;-82
2021/10/09 09:47:41;;;;;;;80.75;42.55;;;11.40;99.90;;;;;;6183967;23;20014;-81
2021/10/09 09:50:11;;;;;;;81.22;41.75;;;11.70;99.90;;;;;;6159719;23;20024;-81
2021/10/09 09:52:41;;;;;;;74.53;41.80;;;11.50;99.90;;;;;;6185231;23;20005;-81
2021/10/09 09:55:13;;;;;;;70.45;39.90;;;11.50;99.90;;;;;;6184075;23;20075;-81
2021/10/09 09:57:40;;;;;;;66.93;39.60;;;11.50;99.90;;;;;;6185887;23;20013;-81
2021/10/09 10:00:08;;;;;;;65.32;39.83;;;11.60;99.90;;;;;;6184029;23;20080;-81
2021/10/09 10:02:39;;;;;;;68.43;40.08;;;11.60;99.90;;;;;;6184439;23;20072;-81
2021/10/09 10:05:05;;;;;;;61.72;36.03;;;11.80;99.90;;;;;;6158706;23;20017;-81
2021/10/09 10:07:35;;;;;;;59.80;35.67;;;11.70;99.90;;;;;;6159056;23;20016;-81
2021/10/09 10:10:08;;;;;;;63.42;35.20;;;11.80;99.90;;;;;;6185829;23;20092;-81
2021/10/09 10:12:38;;;;;;;52.63;31.98;;;11.70;99.90;;;;;;6183946;23;20087;-81
2021/10/09 10:15:07;;;;;;;60.38;34.95;;;11.80;99.90;;;;;;6183743;23;20016;-81
2021/10/09 10:17:44;;;;;;;62.08;34.78;;;11.80;99.90;;;;;;6183949;23;20021;-80
2021/10/09 10:20:16;;;;;;;60.33;35.50;;;11.90;99.90;;;;;;6183666;23;20039;-79
2021/10/09 10:22:42;;;;;;;63.05;35.85;;;11.90;99.90;;;;;;6158456;23;20017;-80
2021/10/09 10:25:23;;;;;;;59.55;34.78;;;12.20;99.90;;;;;;6185580;23;20387;-79
2021/10/09 10:28:21;;;;;;;58.78;35.17;;;11.90;99.90;;;;;;6183840;23;20013;-80
2021/10/09 10:31:04;;;;;;;57.08;34.78;;;12.00;99.90;;;;;;6183104;23;20013;-79
2021/10/09 10:33:36;;;;;;;60.22;34.35;;;12.10;99.90;;;;;;6182886;23;20013;-79
2021/10/09 10:36:02;;;;;;;58.22;34.65;;;12.10;99.90;;;;;;6185145;23;20052;-80
2021/10/09 10:38:41;;;;;;;57.45;33.70;;;12.20;99.90;;;;;;6158896;23;20013;-80
2021/10/09 10:41:09;;;;;;;54.65;33.45;;;12.20;99.90;;;;;;6185290;23;20069;-80
2021/10/09 10:49:56;;;;;;;61.08;35.33;;;12.30;99.90;;;;;;6184268;23;20013;-80
2021/10/09 10:54:36;;;;;;;53.10;32.22;;;12.30;99.90;;;;;;6183434;23;20059;-79
2021/10/09 10:57:02;;;;;;;49.90;32.05;;;12.40;99.90;;;;;;6185385;23;20434;-80
2021/10/09 10:59:32;;;;;;;59.17;32.88;;;12.60;99.90;;;;;;6183723;23;20016;-80
2021/10/09 11:02:11;;;;;;;51.25;31.52;;;12.50;99.90;;;;;;6158661;23;20059;-80
2021/10/09 11:05:09;;;;;;;46.95;31.35;;;12.60;99.90;;;;;;6158809;23;20013;-80
2021/10/09 11:07:37;;;;;;;48.03;29.10;;;12.60;99.90;;;;;;6183765;23;20016;-80
2021/10/09 11:10:08;;;;;;;47.40;28.88;;;13.20;99.90;;;;;;6183592;23;20049;-80
2021/10/09 11:12:40;;;;;;;48.08;28.20;;;12.60;99.90;;;;;;6183299;23;20029;-80
2021/10/09 11:15:15;;;;;;;45.70;28.95;;;12.60;99.90;;;;;;6183371;23;20020;-80
2021/10/09 11:17:47;;;;;;;44.30;27.27;;;12.70;99.90;;;;;;6183363;23;20025;-80
2021/10/09 11:20:20;;;;;;;49.30;25.98;;;12.70;99.90;;;;;;6158294;23;20021;-80
2021/10/09 11:22:49;;;;;;;41.80;25.88;;;12.70;99.90;;;;;;6182097;23;20075;-80
2021/10/09 11:25:25;;;;;;;46.40;26.77;;;12.70;99.90;;;;;;6158027;23;20040;-80
2021/10/09 11:27:51;;;;;;;36.20;24.35;;;12.80;99.90;;;;;;6158354;23;20013;-79
2021/10/09 11:30:17;;;;;;;42.85;24.88;;;12.80;99.90;;;;;;6183315;23;20013;-79
2021/10/09 11:32:44;;;;;;;47.03;24.58;;;12.90;99.90;;;;;;6158503;23;20017;-79
2021/10/09 11:35:11;;;;;;;37.65;21.98;;;12.90;99.90;;;;;;6184763;23;20096;-79
2021/10/09 11:37:52;;;;;;;39.13;21.70;;;13.20;99.90;;;;;;6158466;23;20067;-79
2021/10/09 11:40:36;;;;;;;33.05;20.77;;;13.00;99.90;;;;;;6157362;23;20502;-79
2021/10/09 11:43:43;;;;;;;36.38;20.85;;;13.20;99.90;;;;;;6183339;23;20015;-79
2021/10/09 11:54:27;;;;;;;39.10;20.80;;;13.00;99.90;;;;;;6162208;23;20017;-78
2021/10/09 11:56:48;;;;;;;34.63;22.08;;;13.10;99.90;;;;;;6162612;23;20028;-79
2021/10/09 11:59:16;;;;;;;42.75;22.13;;;13.10;99.90;;;;;;6157982;23;20013;-79
2021/10/09 12:01:44;;;;;;;33.22;21.85;;;13.10;99.90;;;;;;6183363;23;20466;-79
2021/10/09 12:04:17;;;;;;;37.53;22.25;;;13.20;99.90;;;;;;6158068;23;20495;-79
2021/10/09 12:06:57;;;;;;;37.45;20.90;;;13.20;99.90;;;;;;6185027;23;20017;-78
2021/10/09 12:09:42;;;;;;;41.97;22.25;;;13.20;99.90;;;;;;6182909;23;20075;-80
2021/10/09 12:12:11;;;;;;;37.00;21.10;;;13.80;99.90;;;;;;6182931;23;20018;-80
2021/10/09 12:14:37;;;;;;;38.22;20.58;;;13.20;99.90;;;;;;6157626;23;20013;-80
2021/10/09 12:17:03;;;;;;;36.35;21.27;;;13.30;99.90;;;;;;6183618;23;20155;-80
2021/10/09 12:19:30;;;;;;;43.08;20.25;;;13.50;99.90;;;;;;6183298;23;20045;-80
2021/10/09 12:22:12;;;;;;;37.40;20.33;;;13.30;99.90;;;;;;6183214;23;20013;-80
2021/10/09 12:24:49;;;;;;;33.53;19.80;;;13.30;99.90;;;;;;6158264;23;20071;-80
2021/10/09 12:27:19;;;;;;;37.20;20.15;;;13.30;99.90;;;;;;6183121;23;20071;-80
2021/10/09 12:29:57;;;;;;;33.60;20.13;;;13.30;99.90;;;;;;6182777;23;20021;-80
2021/10/09 12:32:23;;;;;;;32.50;17.98;;;13.30;99.90;;;;;;6182954;23;20019;-80
2021/10/09 12:35:11;;;;;;;29.25;18.88;;;13.40;99.90;;;;;;6184886;23;20088;-80
2021/10/09 12:37:58;;;;;;;29.45;18.83;;;13.40;99.90;;;;;;6184230;23;20025;-80
2021/10/09 12:40:47;;;;;;;34.92;17.38;;;13.40;99.90;;;;;;6185135;23;20344;-80
2021/10/09 12:43:19;;;;;;;29.58;18.35;;;13.40;99.90;;;;;;6185888;23;20080;-79
2021/10/09 12:45:46;;;;;;;33.58;18.92;;;13.40;99.90;;;;;;6159859;23;20013;-78
2021/10/09 12:48:13;;;;;;;32.35;18.02;;;13.50;99.90;;;;;;6185071;23;20024;-79
2021/10/09 12:50:42;;;;;;;34.60;18.52;;;13.10;99.90;;;;;;6186586;23;20013;-79
2021/10/09 12:53:08;;;;;;;32.30;18.77;;;13.50;99.90;;;;;;6159821;23;20019;-79
2021/10/09 12:55:36;;;;;;;31.35;17.73;;;13.50;99.90;;;;;;6184740;23;20041;-79
2021/10/09 12:58:06;;;;;;;28.85;17.67;;;13.50;99.90;;;;;;6187719;23;20017;-79
2021/10/09 13:00:33;;;;;;;29.63;17.75;;;13.50;99.90;;;;;;6163434;23;20446;-79
2021/10/09 13:02:59;;;;;;;31.60;17.83;;;13.50;99.90;;;;;;6188388;23;20008;-79
2021/10/09 13:05:27;;;;;;;34.25;17.48;;;13.50;99.90;;;;;;6188580;23;20433;-79
2021/10/09 13:07:56;;;;;;;31.08;18.55;;;13.60;99.90;;;;;;6213482;23;20083;-79
2021/10/09 13:10:22;;;;;;;26.10;17.00;;;13.60;99.90;;;;;;6213512;23;20027;-79
2021/10/09 13:12:49;;;;;;;32.13;16.95;;;13.60;99.90;;;;;;6186194;23;20025;-79
2021/10/09 13:15:19;;;;;;;28.33;17.38;;;13.60;99.90;;;;;;6213569;23;20099;-79
2021/10/09 13:17:47;;;;;;;30.17;16.85;;;13.60;99.90;;;;;;6163238;23;20020;-79
2021/10/09 13:20:13;;;;;;;34.00;17.65;;;13.60;99.90;;;;;;6188069;23;20012;-79
2021/10/09 13:22:39;;;;;;;27.95;17.38;;;13.80;99.90;;;;;;6188194;23;20013;-79
2021/10/09 13:25:08;;;;;;;35.78;17.08;;;13.70;99.90;;;;;;6188265;23;20019;-79
2021/10/09 13:27:34;;;;;;;33.38;18.05;;;13.70;99.90;;;;;;6188179;23;20009;-79
2021/10/09 13:30:03;;;;;;;38.65;20.70;;;13.70;99.90;;;;;;6186706;23;20036;-79
2021/10/09 13:32:32;;;;;;;36.92;19.85;;;13.70;99.90;;;;;;6160106;23;20028;-77
2021/10/09 13:34:57;;;;;;;31.75;17.60;;;13.80;99.90;;;;;;6184436;23;20013;-79
2021/10/09 13:37:26;;;;;;;29.30;16.60;;;13.90;99.90;;;;;;6184453;23;20021;-80
2021/10/09 13:39:58;;;;;;;32.83;15.90;;;13.70;99.90;;;;;;6159107;23;20075;-80
2021/10/09 13:42:25;;;;;;;27.33;16.67;;;13.70;99.90;;;;;;6184131;23;20163;-80
2021/10/09 13:44:53;;;;;;;26.20;16.38;;;13.80;99.90;;;;;;6185119;23;20048;-80
2021/10/09 13:47:27;;;;;;;38.80;18.27;;;13.80;99.90;;;;;;6137491;23;20100;-80
2021/10/09 13:50:12;;;;;;;30.08;16.33;;;13.80;99.90;;;;;;6183364;23;20017;-81
2021/10/09 13:52:48;;;;;;;34.70;16.45;;;13.80;99.90;;;;;;6186107;23;20052;-81
2021/10/09 13:55:16;;;;;;;28.35;16.63;;;13.80;99.90;;;;;;6185141;23;20040;-81
2021/10/09 13:57:57;;;;;;;24.60;15.75;;;13.90;99.90;;;;;;6184473;23;20044;-81
2021/10/09 14:00:37;;;;;;;28.92;17.45;;;13.90;99.90;;;;;;6159155;23;20020;-80
2021/10/09 14:03:04;;;;;;;30.88;16.92;;;14.10;99.90;;;;;;6183550;23;20063;-80
2021/10/09 14:05:34;;;;;;;27.40;16.20;;;13.90;99.90;;;;;;6184423;23;20502;-79
2021/10/09 14:08:03;;;;;;;23.10;15.07;;;14.00;99.90;;;;;;6184517;23;20009;-79
2021/10/09 14:10:30;;;;;;;29.27;15.05;;;13.90;99.90;;;;;;6155509;23;20019;-80
2021/10/09 14:13:03;;;;;;;28.13;15.13;;;13.90;99.90;;;;;;6212768;23;20020;-79
2021/10/09 14:15:44;;;;;;;28.02;16.08;;;13.90;99.90;;;;;;6215130;23;20016;-80
2021/10/09 14:18:32;;;;;;;31.05;15.68;;;13.90;99.90;;;;;;6189404;23;20083;-80
2021/10/09 14:21:28;;;;;;;;;;;;;;;;;;;;;
2021/10/09 14:24:12;;;;;;;24.27;14.80;;;14.00;99.90;;;;;;6211568;23;20044;-80
2021/10/09 14:26:38;;;;;;;33.00;15.73;;;14.50;99.90;;;;;;6163816;23;20074;-80
2021/10/09 14:29:03;;;;;;;34.35;15.07;;;14.00;99.90;;;;;;6163436;23;20343;-80
2021/10/09 14:31:32;;;;;;;27.25;15.68;;;14.10;99.90;;;;;;6213959;23;20016;-81
2021/10/09 14:34:08;;;;;;;27.25;14.90;;;14.10;99.90;;;;;;6188952;23;20451;-81
2021/10/09 14:36:34;;;;;;;28.13;13.63;;;14.40;99.90;;;;;;6163440;23;20012;-81
2021/10/09 14:39:00;;;;;;;25.73;14.32;;;14.10;99.90;;;;;;6164178;23;20023;-81
2021/10/09 14:41:26;;;;;;;26.63;14.38;;;14.10;99.90;;;;;;6188479;23;20063;-79
2021/10/09 14:43:52;;;;;;;28.10;14.55;;;14.10;99.90;;;;;;6213328;23;20016;-79
2021/10/09 14:49:12;;;;;;;25.83;14.32;;;14.10;99.90;;;;;;6215017;23;20040;-78
2021/10/09 14:52:02;;;;;;;24.35;13.82;;;14.10;99.90;;;;;;6188568;23;20350;-80
2021/10/09 15:19:28;;;;;;;30.63;13.85;;;13.90;99.90;;;;;;6131345;23;20021;-78
2021/10/09 15:21:54;;;;;;;30.65;13.93;;;14.00;99.90;;;;;;6152136;23;20060;-78
2021/10/09 15:24:22;;;;;;;28.77;13.68;;;13.90;99.90;;;;;;6152537;23;20018;-78
2021/10/09 15:26:48;;;;;;;27.10;14.32;;;14.00;99.90;;;;;;6127045;23;20013;-78
2021/10/09 15:29:14;;;;;;;25.17;14.23;;;13.90;99.90;;;;;;6127930;23;20013;-78
2021/10/09 15:31:41;;;;;;;23.33;14.35;;;14.00;99.90;;;;;;6127056;23;20020;-78
2021/10/09 15:34:07;;;;;;;21.08;13.65;;;14.10;99.90;;;;;;6187987;23;20024;-78
2021/10/09 15:36:33;;;;;;;20.95;13.35;;;13.80;99.90;;;;;;6188527;23;20305;-80
2021/10/09 15:38:59;;;;;;;27.13;13.23;;;13.80;99.90;;;;;;6188001;23;20016;-78